createdAt,value
2023-04-16T00:00:13.023Z,85.5381
2023-04-16T00:01:15.368Z,85.7334
2023-04-16T00:02:17.824Z,86.1164
2023-04-16T00:03:20.245Z,86.2660
2023-04-16T00:04:22.389Z,86.9637
2023-04-16T00:05:24.685Z,86.1982
2023-04-16T00:06:27.030Z,86.4265
2023-04-16T00:07:29.349Z,87.2435
2023-04-16T00:08:31.694Z,86.5740
2023-04-16T00:09:34.019Z,86.5974
2023-04-16T00:10:36.337Z,86.7247
2023-04-16T00:11:38.662Z,87.0480
2023-04-16T00:12:40.992Z,86.4374
2023-04-16T00:13:43.326Z,86.3687
2023-04-16T00:14:45.663Z,85.7056
2023-04-16T00:15:47.982Z,85.2497
2023-04-16T00:16:50.420Z,85.9596
2023-04-16T00:17:52.773Z,85.9473
2023-04-16T00:18:54.992Z,84.6679
2023-04-16T00:19:57.315Z,83.7089
2023-04-16T00:20:59.688Z,83.8154
2023-04-16T00:22:01.966Z,83.7224
2023-04-16T00:23:04.288Z,83.6830
2023-04-16T00:24:06.675Z,84.8987
2023-04-16T00:25:08.976Z,85.9584
2023-04-16T00:26:11.344Z,86.5530
2023-04-16T00:27:13.626Z,86.7507
2023-04-16T00:28:15.970Z,86.5905
2023-04-16T00:29:18.279Z,85.5674
2023-04-16T00:30:20.616Z,83.9332
2023-04-16T00:31:23.063Z,84.0206
2023-04-16T00:32:25.307Z,84.2478
2023-04-16T00:33:27.708Z,85.2692
2023-04-16T00:34:29.959Z,85.4747
2023-04-16T00:35:32.332Z,84.7729
2023-04-16T00:36:34.591Z,84.7630
2023-04-16T00:37:36.953Z,83.9108
2023-04-16T00:38:39.293Z,83.9828
2023-04-16T00:39:41.580Z,84.1432
2023-04-16T00:40:43.925Z,83.9920
2023-04-16T00:41:46.263Z,85.9107
2023-04-16T00:42:48.628Z,86.7702
2023-04-16T00:43:50.936Z,86.7349
2023-04-16T00:44:53.260Z,86.7731
2023-04-16T00:45:55.658Z,85.8403
2023-04-16T00:46:57.934Z,85.1174
2023-04-16T00:48:00.669Z,85.3120
2023-04-16T00:49:02.624Z,85.7543
2023-04-16T00:50:04.950Z,85.9837
2023-04-16T00:51:07.278Z,85.6504
2023-04-16T00:52:09.638Z,84.9304
2023-04-16T00:53:11.937Z,84.5790
2023-04-16T00:54:14.254Z,84.8411
2023-04-16T00:55:16.602Z,84.8098
2023-04-16T00:56:18.933Z,84.7726
2023-04-16T00:57:21.269Z,84.5278
2023-04-16T00:58:23.653Z,84.2128
2023-04-16T00:59:25.900Z,83.9066
2023-04-16T01:00:28.266Z,83.1177
2023-04-16T01:01:30.638Z,83.5961
2023-04-16T01:02:32.991Z,84.1907
2023-04-16T01:03:35.471Z,84.7708
2023-04-16T01:04:37.636Z,84.3848
2023-04-16T01:05:39.932Z,84.9412
2023-04-16T01:06:42.298Z,85.4621
2023-04-16T01:07:44.584Z,84.7796
2023-04-16T01:08:46.894Z,84.6221
2023-04-16T01:09:49.248Z,85.1545
2023-04-16T01:10:51.595Z,85.8395
2023-04-16T01:11:53.891Z,86.0401
2023-04-16T01:12:56.234Z,86.3410
2023-04-16T01:13:58.606Z,86.9506
2023-04-16T01:15:00.903Z,87.4333
2023-04-16T01:16:03.246Z,86.4273
2023-04-16T01:17:05.630Z,85.7333
2023-04-16T01:18:07.917Z,85.7929
2023-04-16T01:19:10.353Z,85.8761
2023-04-16T01:20:12.534Z,85.5434
2023-04-16T01:21:14.928Z,85.5566
2023-04-16T01:22:17.211Z,86.2126
2023-04-16T01:23:19.672Z,86.7230
2023-04-16T01:24:21.872Z,86.9622
2023-04-16T01:25:24.227Z,87.2332
2023-04-16T01:26:26.602Z,87.2697
2023-04-16T01:27:28.879Z,87.1191
2023-04-16T01:28:31.228Z,87.1244
2023-04-16T01:29:33.638Z,87.7683
2023-04-16T01:30:35.899Z,87.3687
2023-04-16T01:31:38.340Z,86.4334
2023-04-16T01:32:40.600Z,86.0379
2023-04-16T01:33:42.858Z,86.0728
2023-04-16T01:34:45.254Z,85.7256
2023-04-16T01:35:47.613Z,86.3349
2023-04-16T01:36:49.868Z,86.3383
2023-04-16T01:37:52.213Z,86.0099
2023-04-16T01:38:54.558Z,86.4370
2023-04-16T01:39:56.863Z,86.8504
2023-04-16T01:40:59.231Z,87.3634
2023-04-16T01:42:01.547Z,86.4640
2023-04-16T01:43:03.891Z,86.4405
2023-04-16T01:44:06.230Z,86.2081
2023-04-16T01:45:08.519Z,85.3516
2023-04-16T01:46:10.895Z,85.6409
2023-04-16T01:47:13.235Z,86.0161
2023-04-16T01:48:15.508Z,86.8009
2023-04-16T01:49:17.897Z,86.5159
2023-04-16T01:50:20.201Z,87.0462
2023-04-16T01:51:22.467Z,86.6440
2023-04-16T01:52:24.815Z,86.0134
2023-04-16T01:53:27.178Z,86.7932
2023-04-16T01:54:29.466Z,86.2127
2023-04-16T01:55:31.828Z,85.6828
2023-04-16T01:56:34.102Z,86.6410
2023-04-16T01:57:36.470Z,86.9205
2023-04-16T01:58:38.944Z,86.8814
2023-04-16T01:59:41.153Z,86.7865
2023-04-16T02:00:43.492Z,86.5683
2023-04-16T02:01:45.848Z,86.1516
2023-04-16T02:02:48.288Z,85.4830
2023-04-16T02:03:50.587Z,85.6842
2023-04-16T02:04:52.780Z,85.6743
2023-04-16T02:05:55.081Z,86.2003
2023-04-16T02:06:57.442Z,86.4392
2023-04-16T02:07:59.800Z,85.8775
2023-04-16T02:09:02.162Z,85.2999
2023-04-16T02:10:04.426Z,85.4486
2023-04-16T02:11:06.800Z,84.8615
2023-04-16T02:12:09.081Z,84.6679
2023-04-16T02:13:11.414Z,84.5236
2023-04-16T02:14:13.771Z,84.8010
2023-04-16T02:15:16.033Z,84.1451
2023-04-16T02:16:18.446Z,84.5176
2023-04-16T02:17:20.809Z,84.8446
2023-04-16T02:18:23.061Z,85.4156
2023-04-16T02:19:25.441Z,85.1268
2023-04-16T02:20:27.790Z,84.4534
2023-04-16T02:21:30.118Z,84.8453
2023-04-16T02:22:32.385Z,84.3012
2023-04-16T02:23:34.748Z,84.1811
2023-04-16T02:24:37.137Z,84.2814
2023-04-16T02:25:39.377Z,85.3253
2023-04-16T02:26:41.705Z,86.1433
2023-04-16T02:27:44.037Z,85.7794
2023-04-16T02:28:46.416Z,85.6785
2023-04-16T02:29:48.723Z,84.3336
2023-04-16T02:30:51.058Z,84.3745
2023-04-16T02:31:53.475Z,85.7110
2023-04-16T02:32:55.823Z,85.6960
2023-04-16T02:33:58.064Z,84.6780
2023-04-16T02:35:00.387Z,83.3949
2023-04-16T02:36:02.734Z,83.6063
2023-04-16T02:37:05.062Z,85.3640
2023-04-16T02:38:07.415Z,85.6785
2023-04-16T02:39:09.879Z,85.4587
2023-04-16T02:40:12.099Z,84.2458
2023-04-16T02:41:14.596Z,83.3281
2023-04-16T02:42:16.891Z,84.1846
2023-04-16T02:43:19.137Z,85.5661
2023-04-16T02:44:21.466Z,85.1487
2023-04-16T02:45:23.845Z,84.3253
2023-04-16T02:46:26.121Z,83.6515
2023-04-16T02:47:28.495Z,83.1784
2023-04-16T02:48:30.786Z,83.3340
2023-04-16T02:49:33.166Z,83.5925
2023-04-16T02:50:35.435Z,84.0827
2023-04-16T02:51:37.780Z,85.3024
2023-04-16T02:52:40.239Z,86.2282
2023-04-16T02:53:42.462Z,86.0896
2023-04-16T02:54:44.764Z,85.5707
2023-04-16T02:55:47.230Z,84.9767
2023-04-16T02:56:49.393Z,84.3130
2023-04-16T02:57:51.775Z,84.4063
2023-04-16T02:58:54.051Z,84.6797
2023-04-16T02:59:56.418Z,84.4620
2023-04-16T03:00:58.763Z,85.3674
2023-04-16T03:02:01.121Z,84.7804
2023-04-16T03:03:03.500Z,84.1426
2023-04-16T03:04:05.777Z,84.9491
2023-04-16T03:05:08.035Z,84.8796
2023-04-16T03:06:10.365Z,84.3870
2023-04-16T03:07:12.730Z,84.1759
2023-04-16T03:08:15.117Z,83.8897
2023-04-16T03:09:17.394Z,82.7970
2023-04-16T03:10:19.688Z,82.8407
2023-04-16T03:11:22.067Z,84.1075
2023-04-16T03:12:24.428Z,84.3854
2023-04-16T03:13:26.778Z,83.8212
2023-04-16T03:14:29.011Z,82.1261
2023-04-16T03:15:31.518Z,82.9605
2023-04-16T03:16:33.697Z,83.9725
2023-04-16T03:17:36.041Z,83.4686
2023-04-16T03:18:38.410Z,82.8312
2023-04-16T03:19:40.836Z,82.4666
2023-04-16T03:20:42.966Z,82.7360
2023-04-16T03:21:45.322Z,82.1977
2023-04-16T03:22:47.664Z,82.7624
2023-04-16T03:23:49.986Z,83.6111
2023-04-16T03:24:52.337Z,84.2484
2023-04-16T03:25:54.739Z,83.4641
2023-04-16T03:26:56.990Z,82.6282
2023-04-16T03:27:59.292Z,83.5864
2023-04-16T03:29:01.688Z,83.5619
2023-04-16T03:30:03.950Z,82.7710
2023-04-16T03:31:06.366Z,83.8116
2023-04-16T03:32:08.660Z,83.9559
2023-04-16T03:33:10.998Z,83.7796
2023-04-16T03:34:13.347Z,84.6513
2023-04-16T03:35:15.579Z,83.6825
2023-04-16T03:36:17.977Z,83.4490
2023-04-16T03:37:20.330Z,84.4413
2023-04-16T03:38:22.642Z,85.0349
2023-04-16T03:39:25.044Z,83.8596
2023-04-16T03:40:27.341Z,82.9396
2023-04-16T03:41:29.662Z,83.3509
2023-04-16T03:42:31.905Z,83.9191
2023-04-16T03:43:34.321Z,83.2899
2023-04-16T03:44:36.616Z,83.4279
2023-04-16T03:45:38.903Z,83.9886
2023-04-16T03:46:41.294Z,84.2775
2023-04-16T03:47:43.666Z,85.1613
2023-04-16T03:48:45.866Z,85.5652
2023-04-16T03:49:48.211Z,84.7726
2023-04-16T03:50:50.550Z,84.3987
2023-04-16T03:51:52.872Z,84.8688
2023-04-16T03:52:55.160Z,85.0604
2023-04-16T03:53:57.524Z,83.9981
2023-04-16T03:54:59.839Z,84.6477
2023-04-16T03:56:02.155Z,83.4656
2023-04-16T03:57:04.513Z,83.6929
2023-04-16T03:58:06.843Z,84.5250
2023-04-16T03:59:09.387Z,84.4883
2023-04-16T04:00:11.544Z,84.2987
2023-04-16T04:01:13.802Z,84.4323
2023-04-16T04:02:16.217Z,84.7668
2023-04-16T04:03:18.764Z,85.4306
2023-04-16T04:04:20.891Z,85.9509
2023-04-16T04:05:23.186Z,85.7206
2023-04-16T04:06:25.522Z,86.3052
2023-04-16T04:07:27.861Z,85.9632
2023-04-16T04:08:30.124Z,85.2663
2023-04-16T04:09:32.528Z,84.1008
2023-04-16T04:10:34.854Z,84.0935
2023-04-16T04:11:37.780Z,85.4842
2023-04-16T04:12:39.452Z,85.5690
2023-04-16T04:13:41.810Z,85.3807
2023-04-16T04:14:44.100Z,85.7002
2023-04-16T04:15:46.452Z,85.8463
2023-04-16T04:16:48.825Z,85.0498
2023-04-16T04:17:51.120Z,85.1322
2023-04-16T04:18:53.436Z,85.8542
2023-04-16T04:20:58.170Z,84.9153
2023-04-16T04:22:00.471Z,84.4451
2023-04-16T04:23:02.920Z,83.6432
2023-04-16T04:24:05.171Z,83.2320
2023-04-16T04:25:07.434Z,84.0216
2023-04-16T04:26:09.830Z,84.0796
2023-04-16T04:27:12.141Z,83.6824
2023-04-16T04:28:14.544Z,83.4301
2023-04-16T04:29:16.748Z,83.4104
2023-04-16T04:30:19.104Z,83.3490
2023-04-16T04:31:21.459Z,83.5376
2023-04-16T04:32:23.755Z,83.7678
2023-04-16T04:33:26.043Z,84.7879
2023-04-16T04:34:28.373Z,84.9456
2023-04-16T04:35:30.762Z,85.2005
2023-04-16T04:36:33.062Z,83.7400
2023-04-16T04:37:35.371Z,83.4743
2023-04-16T04:38:37.758Z,83.8123
2023-04-16T04:39:40.064Z,84.8661
2023-04-16T04:40:42.378Z,84.5923
2023-04-16T04:41:44.751Z,83.9843
2023-04-16T04:42:46.997Z,84.1196
2023-04-16T04:43:49.360Z,85.2683
2023-04-16T04:44:51.678Z,85.4387
2023-04-16T04:45:54.096Z,85.1120
2023-04-16T04:46:56.390Z,84.4312
2023-04-16T04:47:58.740Z,85.4121
2023-04-16T04:49:01.087Z,85.6429
2023-04-16T04:50:03.453Z,85.2340
2023-04-16T04:51:05.866Z,84.3711
2023-04-16T04:52:08.068Z,84.4519
2023-04-16T04:53:10.345Z,85.6577
2023-04-16T04:54:12.700Z,86.1319
2023-04-16T04:55:15.053Z,84.9101
2023-04-16T04:56:17.384Z,84.4085
2023-04-16T04:57:19.729Z,84.7642
2023-04-16T04:58:22.223Z,84.8211
2023-04-16T04:59:24.371Z,84.4157
2023-04-16T05:00:26.721Z,83.8799
2023-04-16T05:01:29.053Z,83.6699
2023-04-16T05:02:31.508Z,83.5793
2023-04-16T05:03:33.833Z,82.8454
2023-04-16T05:04:36.135Z,83.2322
2023-04-16T05:05:38.367Z,83.6023
2023-04-16T05:06:40.733Z,84.1535
2023-04-16T05:07:43.060Z,84.4850
2023-04-16T05:08:45.353Z,84.4027
2023-04-16T05:09:47.681Z,82.9267
2023-04-16T05:10:50.065Z,83.4029
2023-04-16T05:11:52.357Z,83.6308
2023-04-16T05:12:54.702Z,83.8316
2023-04-16T05:13:56.988Z,83.8350
2023-04-16T05:14:59.350Z,84.9215
2023-04-16T05:16:01.786Z,84.7012
2023-04-16T05:17:04.157Z,84.2331
2023-04-16T05:18:06.431Z,83.5636
2023-04-16T05:19:09.025Z,83.7841
2023-04-16T05:20:11.026Z,84.7485
2023-04-16T05:21:13.401Z,84.8595
2023-04-16T05:22:15.699Z,84.4345
2023-04-16T05:23:17.996Z,84.1216
2023-04-16T05:24:20.369Z,83.8936
2023-04-16T05:25:22.741Z,82.9879
2023-04-16T05:26:25.041Z,82.7234
2023-04-16T05:27:27.336Z,82.9870
2023-04-16T05:28:29.662Z,83.6745
2023-04-16T05:29:31.992Z,83.6475
2023-04-16T05:30:34.357Z,83.5648
2023-04-16T05:31:36.712Z,84.0865
2023-04-16T05:32:39.024Z,84.8626
2023-04-16T05:33:41.380Z,85.6789
2023-04-16T05:34:43.641Z,85.7902
2023-04-16T05:35:45.954Z,85.9765
2023-04-16T05:36:48.334Z,86.4701
2023-04-16T05:37:50.647Z,86.3009
2023-04-16T05:38:53.002Z,85.9147
2023-04-16T05:39:55.316Z,86.4798
2023-04-16T05:40:57.638Z,86.5625
2023-04-16T05:41:59.994Z,85.4031
2023-04-16T05:43:02.305Z,85.6442
2023-04-16T05:44:04.729Z,85.6868
2023-04-16T05:45:06.988Z,85.1024
2023-04-16T05:46:09.333Z,85.2462
2023-04-16T05:47:11.689Z,86.1238
2023-04-16T05:48:13.964Z,87.0841
2023-04-16T05:49:16.318Z,86.3744
2023-04-16T05:50:18.641Z,85.4846
2023-04-16T05:51:20.973Z,85.4814
2023-04-16T05:52:23.348Z,85.2411
2023-04-16T05:53:25.688Z,84.3644
2023-04-16T05:54:27.976Z,84.9393
2023-04-16T05:55:30.319Z,85.3335
2023-04-16T05:56:32.638Z,85.7889
2023-04-16T05:57:34.981Z,86.3677
2023-04-16T05:58:37.319Z,85.9518
2023-04-16T05:59:39.673Z,85.1397
2023-04-16T06:00:41.997Z,85.5477
2023-04-16T06:01:44.301Z,85.4591
2023-04-16T06:02:46.824Z,86.4649
2023-04-16T06:03:49.132Z,86.7081
2023-04-16T06:04:51.319Z,85.8991
2023-04-16T06:05:53.687Z,85.3884
2023-04-16T06:06:56.002Z,86.4045
2023-04-16T06:07:58.360Z,86.3861
2023-04-16T06:09:00.637Z,86.2375
2023-04-16T06:10:03.011Z,85.7903
2023-04-16T06:11:05.379Z,86.1237
2023-04-16T06:12:07.659Z,86.2565
2023-04-16T06:13:09.965Z,86.3542
2023-04-16T06:14:12.329Z,86.9054
2023-04-16T06:15:14.641Z,86.6815
2023-04-16T06:16:17.012Z,87.1455
2023-04-16T06:17:19.310Z,86.8815
2023-04-16T06:18:21.654Z,86.2188
2023-04-16T06:19:23.989Z,85.8813
2023-04-16T06:20:26.337Z,86.7780
2023-04-16T06:21:28.694Z,86.8671
2023-04-16T06:22:31.001Z,87.0327
2023-04-16T06:23:33.568Z,87.1827
2023-04-16T06:24:35.655Z,86.7597
2023-04-16T06:25:37.974Z,86.6493
2023-04-16T06:26:40.329Z,86.5111
2023-04-16T06:27:42.661Z,86.0062
2023-04-16T06:28:44.977Z,85.6187
2023-04-16T06:29:47.324Z,85.9293
2023-04-16T06:30:49.630Z,85.7732
2023-04-16T06:31:52.036Z,85.9305
2023-04-16T06:32:54.352Z,85.4438
2023-04-16T06:33:56.633Z,85.3990
2023-04-16T06:34:58.977Z,84.7520
2023-04-16T06:36:01.315Z,85.8173
2023-04-16T06:37:03.615Z,85.5550
2023-04-16T06:38:05.948Z,85.7913
2023-04-16T06:39:08.685Z,86.4551
2023-04-16T06:40:10.615Z,86.4436
2023-04-16T06:41:12.956Z,86.6801
2023-04-16T06:42:15.272Z,86.7226
2023-04-16T06:43:17.605Z,87.1462
2023-04-16T06:44:19.984Z,87.2055
2023-04-16T06:45:22.355Z,87.3647
2023-04-16T06:46:24.672Z,88.0612
2023-04-16T06:47:27.030Z,88.5247
2023-04-16T06:48:29.322Z,88.5661
2023-04-16T06:49:31.660Z,88.0930
2023-04-16T06:50:33.998Z,87.9402
2023-04-16T06:51:36.342Z,88.2784
2023-04-16T06:52:38.665Z,87.9589
2023-04-16T06:53:40.981Z,87.4083
2023-04-16T06:54:43.353Z,87.5081
2023-04-16T06:55:45.648Z,87.6020
2023-04-16T06:56:47.998Z,87.5124
2023-04-16T06:57:50.310Z,87.6455
2023-04-16T06:58:52.657Z,88.3760
2023-04-16T06:59:54.976Z,88.5449
2023-04-16T07:00:57.323Z,88.4471
2023-04-16T07:01:59.687Z,88.6986
2023-04-16T07:03:02.296Z,88.5626
2023-04-16T07:04:04.504Z,88.1841
2023-04-16T07:05:06.632Z,88.1458
2023-04-16T07:06:08.970Z,88.2406
2023-04-16T07:07:11.337Z,88.6140
2023-04-16T07:08:13.610Z,88.8025
2023-04-16T07:09:15.952Z,89.4273
2023-04-16T07:10:18.292Z,89.3779
2023-04-16T07:11:20.609Z,89.3534
2023-04-16T07:12:23.152Z,89.2275
2023-04-16T07:13:25.275Z,89.1810
2023-04-16T07:14:27.615Z,88.9489
2023-04-16T07:15:29.954Z,88.7371
2023-04-16T07:16:32.285Z,89.1171
2023-04-16T07:17:34.661Z,89.4492
2023-04-16T07:18:36.968Z,88.8725
2023-04-16T07:19:39.290Z,88.6977
2023-04-16T07:20:41.624Z,89.1009
2023-04-16T07:21:43.924Z,88.9798
2023-04-16T07:22:46.270Z,88.5158
2023-04-16T07:23:48.594Z,88.6523
2023-04-16T07:24:50.978Z,89.2617
2023-04-16T07:25:53.263Z,88.8952
2023-04-16T07:26:55.600Z,88.7212
2023-04-16T07:27:57.919Z,89.0548
2023-04-16T07:29:00.250Z,88.8875
2023-04-16T07:30:02.612Z,88.2672
2023-04-16T07:31:04.921Z,87.9735
2023-04-16T07:32:07.307Z,88.2192
2023-04-16T07:33:09.604Z,88.7596
2023-04-16T07:34:11.932Z,88.7804
2023-04-16T07:35:14.278Z,89.3677
2023-04-16T07:36:16.573Z,89.4463
2023-04-16T07:37:18.914Z,89.3105
2023-04-16T07:38:21.245Z,89.6388
2023-04-16T07:39:23.577Z,89.8947
2023-04-16T07:40:25.917Z,89.8692
2023-04-16T07:41:28.257Z,89.4065
2023-04-16T07:42:30.579Z,88.6266
2023-04-16T07:43:32.904Z,87.0726
2023-04-16T07:44:35.246Z,86.5333
2023-04-16T07:45:37.666Z,85.4909
2023-04-16T07:46:46.893Z,85.9963
2023-04-16T07:47:42.305Z,86.8804
2023-04-16T07:48:44.568Z,87.2273
2023-04-16T07:49:46.922Z,87.3768
2023-04-16T07:50:49.234Z,87.1621
2023-04-16T07:51:51.578Z,86.5221
2023-04-16T07:52:53.897Z,86.9249
2023-04-16T07:53:56.216Z,87.2962
2023-04-16T07:54:58.569Z,87.1222
2023-04-16T07:56:00.908Z,87.0406
2023-04-16T07:57:03.218Z,87.4546
2023-04-16T07:58:05.613Z,88.0451
2023-04-16T07:59:21.009Z,88.3290
2023-04-16T08:00:10.225Z,87.2073
2023-04-16T08:01:12.588Z,87.3729
2023-04-16T08:02:14.975Z,86.8497
2023-04-16T08:03:17.338Z,86.6972
2023-04-16T08:04:19.733Z,86.8753
2023-04-16T08:05:21.980Z,86.6079
2023-04-16T08:06:24.199Z,87.1341
2023-04-16T08:07:26.571Z,86.5974
2023-04-16T08:08:28.876Z,86.8673
2023-04-16T08:09:31.198Z,86.4728
2023-04-16T08:10:33.532Z,87.2703
2023-04-16T08:11:35.859Z,88.2662
2023-04-16T08:12:38.207Z,88.4361
2023-04-16T08:13:40.557Z,88.6405
2023-04-16T08:14:42.869Z,88.8132
2023-04-16T08:15:45.217Z,88.5153
2023-04-16T08:16:47.551Z,87.4291
2023-04-16T08:17:49.883Z,87.2243
2023-04-16T08:18:52.252Z,87.3795
2023-04-16T08:19:54.679Z,87.0001
2023-04-16T08:20:56.844Z,87.3147
2023-04-16T08:21:59.189Z,87.8353
2023-04-16T08:23:01.546Z,88.1348
2023-04-16T08:24:03.865Z,87.3535
2023-04-16T08:25:06.214Z,87.1989
2023-04-16T08:26:08.510Z,87.8366
2023-04-16T08:27:18.678Z,88.0407
2023-04-16T08:28:13.201Z,87.3832
2023-04-16T08:29:15.534Z,86.9643
2023-04-16T08:30:17.872Z,87.2698
2023-04-16T08:31:20.227Z,87.0109
2023-04-16T08:32:22.536Z,87.0654
2023-04-16T08:33:24.857Z,87.1784
2023-04-16T08:34:27.187Z,87.2198
2023-04-16T08:35:29.539Z,88.1715
2023-04-16T08:36:31.843Z,88.6416
2023-04-16T08:37:34.175Z,87.9898
2023-04-16T08:38:36.503Z,86.8567
2023-04-16T08:39:38.879Z,85.9843
2023-04-16T08:40:41.178Z,86.1586
2023-04-16T08:41:43.517Z,86.7784
2023-04-16T08:42:45.836Z,86.8970
2023-04-16T08:43:48.174Z,86.8456
2023-04-16T08:44:50.512Z,87.2340
2023-04-16T08:45:52.858Z,86.4643
2023-04-16T08:46:55.242Z,86.1233
2023-04-16T08:47:57.594Z,86.7405
2023-04-16T08:48:59.848Z,86.6347
2023-04-16T08:50:02.189Z,85.5961
2023-04-16T08:51:04.485Z,85.6523
2023-04-16T08:52:06.842Z,85.2820
2023-04-16T08:53:11.109Z,85.8092
2023-04-16T08:54:11.486Z,85.9550
2023-04-16T08:55:13.822Z,86.1552
2023-04-16T08:56:16.152Z,86.1087
2023-04-16T08:57:18.494Z,86.2126
2023-04-16T08:58:20.803Z,86.7118
2023-04-16T08:59:23.135Z,87.2209
2023-04-16T09:00:25.501Z,86.7591
2023-04-16T09:01:27.873Z,86.0784
2023-04-16T09:02:30.280Z,86.5628
2023-04-16T09:03:34.924Z,86.4647
2023-04-16T09:04:34.844Z,85.6728
2023-04-16T09:05:37.147Z,85.6932
2023-04-16T09:06:39.476Z,85.7013
2023-04-16T09:07:41.835Z,86.1543
2023-04-16T09:08:44.142Z,85.7407
2023-04-16T09:09:46.466Z,85.1296
2023-04-16T09:10:48.837Z,84.9020
2023-04-16T09:11:51.124Z,85.4808
2023-04-16T09:12:53.465Z,85.1700
2023-04-16T09:13:55.806Z,85.4968
2023-04-16T09:14:58.146Z,86.1699
2023-04-16T09:16:00.517Z,86.0728
2023-04-16T09:17:02.806Z,85.8140
2023-04-16T09:18:05.139Z,85.2939
2023-04-16T09:19:07.557Z,84.9291
2023-04-16T09:20:09.799Z,85.1206
2023-04-16T09:21:12.155Z,84.4600
2023-04-16T09:22:14.476Z,84.3126
2023-04-16T09:23:16.794Z,85.1440
2023-04-16T09:24:19.130Z,84.9311
2023-04-16T09:25:21.466Z,84.4781
2023-04-16T09:26:23.811Z,84.3896
2023-04-16T09:27:26.234Z,84.3711
2023-04-16T09:28:28.472Z,84.3123
2023-04-16T09:29:30.819Z,84.9472
2023-04-16T09:30:33.130Z,86.1781
2023-04-16T09:31:35.496Z,85.2871
2023-04-16T09:32:37.885Z,85.0430
2023-04-16T09:33:40.154Z,85.3773
2023-04-16T09:34:42.502Z,85.7659
2023-04-16T09:35:44.820Z,87.0879
2023-04-16T09:36:47.149Z,86.9006
2023-04-16T09:37:49.507Z,86.3030
2023-04-16T09:38:51.835Z,86.6691
2023-04-16T09:39:54.154Z,84.7720
2023-04-16T09:40:56.634Z,84.1698
2023-04-16T09:41:58.802Z,82.9511
2023-04-16T09:43:01.157Z,83.8512
2023-04-16T09:44:03.487Z,84.1783
2023-04-16T09:45:06.291Z,83.6980
2023-04-16T09:46:08.691Z,83.4372
2023-04-16T09:47:10.492Z,83.2355
2023-04-16T09:48:12.807Z,83.9861
2023-04-16T09:49:15.162Z,84.4081
2023-04-16T09:50:18.675Z,83.3805
2023-04-16T09:51:19.818Z,83.2681
2023-04-16T09:52:22.164Z,84.6434
2023-04-16T09:53:24.490Z,85.9812
2023-04-16T09:54:26.818Z,86.1961
2023-04-16T09:55:29.163Z,85.4750
2023-04-16T09:56:31.477Z,85.8812
2023-04-16T09:57:33.812Z,86.5767
2023-04-16T09:58:36.212Z,86.7070
2023-04-16T09:59:38.501Z,86.9605
2023-04-16T10:00:42.250Z,86.2764
2023-04-16T10:01:43.270Z,84.6114
2023-04-16T10:02:45.704Z,84.9512
2023-04-16T10:03:47.909Z,85.1206
2023-04-16T10:04:50.479Z,84.8780
2023-04-16T10:05:52.637Z,83.9097
2023-04-16T10:06:54.833Z,85.2094
2023-04-16T10:07:57.160Z,86.2737
2023-04-16T10:08:59.493Z,86.0160
2023-04-16T10:10:01.904Z,85.9436
2023-04-16T10:11:04.155Z,85.9298
2023-04-16T10:12:06.505Z,86.1753
2023-04-16T10:13:08.824Z,85.9788
2023-04-16T10:14:11.160Z,86.1557
2023-04-16T10:15:13.479Z,86.2262
2023-04-16T10:16:15.853Z,85.6728
2023-04-16T10:17:18.146Z,85.2985
2023-04-16T10:18:20.512Z,85.1223
2023-04-16T10:19:22.821Z,84.8744
2023-04-16T10:20:25.152Z,84.3081
2023-04-16T10:21:27.511Z,84.7147
2023-04-16T10:22:29.800Z,84.8669
2023-04-16T10:23:32.136Z,84.3350
2023-04-16T10:24:34.477Z,83.8693
2023-04-16T10:25:36.795Z,83.8368
2023-04-16T10:26:39.130Z,83.4165
2023-04-16T10:27:41.459Z,83.8421
2023-04-16T10:28:43.828Z,82.7867
2023-04-16T10:29:46.174Z,82.8532
2023-04-16T10:30:48.475Z,83.2267
2023-04-16T10:31:50.784Z,82.8170
2023-04-16T10:32:53.145Z,82.2962
2023-04-16T10:33:55.450Z,82.1489
2023-04-16T10:34:57.799Z,82.5722
2023-04-16T10:36:07.426Z,83.2887
2023-04-16T10:37:02.448Z,82.6938
2023-04-16T10:38:04.773Z,82.3522
2023-04-16T10:39:07.105Z,82.0896
2023-04-16T10:40:09.470Z,82.0949
2023-04-16T10:41:11.773Z,81.8486
2023-04-16T10:42:14.104Z,80.9358
2023-04-16T10:43:16.427Z,79.7695
2023-04-16T10:44:18.769Z,80.4722
2023-04-16T10:45:21.136Z,79.2611
2023-04-16T10:46:23.481Z,78.8831
2023-04-16T10:47:25.807Z,80.0378
2023-04-16T10:48:35.598Z,81.9105
2023-04-16T10:49:30.434Z,83.1518
2023-04-16T10:50:32.780Z,83.8247
2023-04-16T10:51:35.183Z,83.8735
2023-04-16T10:52:37.553Z,83.0261
2023-04-16T10:53:39.860Z,82.1928
2023-04-16T10:54:42.192Z,81.2316
2023-04-16T10:55:44.511Z,81.6424
2023-04-16T10:56:46.845Z,81.1063
2023-04-16T10:57:49.186Z,79.8227
2023-04-16T10:58:51.511Z,80.2876
2023-04-16T10:59:53.843Z,81.9134
2023-04-16T11:00:56.194Z,82.3980
2023-04-16T11:01:58.611Z,82.6789
2023-04-16T11:03:00.951Z,83.2186
2023-04-16T11:04:03.339Z,83.3868
2023-04-16T11:05:05.516Z,84.7444
2023-04-16T11:06:07.853Z,85.3149
2023-04-16T11:07:10.191Z,84.8650
2023-04-16T11:08:12.513Z,83.8281
2023-04-16T11:09:14.861Z,81.9854
2023-04-16T11:10:17.206Z,81.7417
2023-04-16T11:11:19.535Z,83.1628
2023-04-16T11:12:21.849Z,84.2378
2023-04-16T11:13:24.181Z,84.3453
2023-04-16T11:14:26.506Z,83.6954
2023-04-16T11:15:28.854Z,83.5024
2023-04-16T11:16:31.236Z,83.5901
2023-04-16T11:17:33.594Z,83.9645
2023-04-16T11:18:35.860Z,83.0753
2023-04-16T11:19:38.175Z,83.7040
2023-04-16T11:20:40.530Z,83.1755
2023-04-16T11:21:42.857Z,81.9203
2023-04-16T11:22:45.171Z,79.4718
2023-04-16T11:23:47.501Z,80.2597
2023-04-16T11:24:49.842Z,82.7197
2023-04-16T11:25:52.190Z,83.3037
2023-04-16T11:26:54.510Z,82.1365
2023-04-16T11:27:56.838Z,82.0219
2023-04-16T11:28:59.177Z,83.2948
2023-04-16T11:30:01.545Z,84.8782
2023-04-16T11:31:03.857Z,85.3975
2023-04-16T11:32:06.177Z,84.2286
2023-04-16T11:33:08.525Z,84.3732
2023-04-16T11:34:10.855Z,85.5201
2023-04-16T11:35:13.179Z,85.8308
2023-04-16T11:36:15.526Z,85.2722
2023-04-16T11:37:17.849Z,82.1308
2023-04-16T11:38:20.189Z,81.3048
2023-04-16T11:39:22.521Z,82.0104
2023-04-16T11:40:24.861Z,82.1894
2023-04-16T11:41:27.184Z,81.9483
2023-04-16T11:42:29.568Z,80.6489
2023-04-16T11:43:31.868Z,81.9939
2023-04-16T11:44:34.196Z,83.4450
2023-04-16T11:45:36.526Z,82.7605
2023-04-16T11:46:38.895Z,82.6130
2023-04-16T11:47:41.320Z,83.6778
2023-04-16T11:48:43.553Z,83.6634
2023-04-16T11:49:45.856Z,83.4604
2023-04-16T11:50:48.201Z,83.2836
2023-04-16T11:51:50.523Z,82.2979
2023-04-16T11:52:52.861Z,80.0775
2023-04-16T11:53:55.213Z,80.7069
2023-04-16T11:54:57.526Z,82.1791
2023-04-16T11:55:59.889Z,82.2703
2023-04-16T11:57:02.201Z,82.4033
2023-04-16T11:58:04.536Z,81.4890
2023-04-16T11:59:06.961Z,81.7343
2023-04-16T12:00:10.548Z,79.1726
2023-04-16T12:01:11.540Z,79.3378
2023-04-16T12:02:13.999Z,79.3603
2023-04-16T12:03:16.441Z,81.2908
2023-04-16T12:04:18.645Z,82.5623
2023-04-16T12:05:20.876Z,81.5073
2023-04-16T12:06:24.399Z,81.9790
2023-04-16T12:07:25.550Z,84.0205
2023-04-16T12:08:27.880Z,84.4193
2023-04-16T12:09:30.218Z,84.1611
2023-04-16T12:10:32.567Z,82.8161
2023-04-16T12:11:34.937Z,81.3681
2023-04-16T12:12:37.232Z,81.5370
2023-04-16T12:13:39.568Z,81.3574
2023-04-16T12:14:41.919Z,81.3535
2023-04-16T12:15:44.285Z,80.9620
2023-04-16T12:16:46.653Z,80.6439
2023-04-16T12:17:48.984Z,81.6398
2023-04-16T12:18:51.256Z,81.8693
2023-04-16T12:19:53.610Z,81.6792
2023-04-16T12:20:55.951Z,81.7271
2023-04-16T12:21:58.272Z,80.7637
2023-04-16T12:23:00.599Z,81.2049
2023-04-16T12:24:02.941Z,81.9079
2023-04-16T12:25:05.298Z,81.4662
2023-04-16T12:26:07.622Z,81.6177
2023-04-16T12:27:09.943Z,82.6950
2023-04-16T12:28:12.299Z,83.4442
2023-04-16T12:29:14.633Z,83.3130
2023-04-16T12:30:16.956Z,82.1696
2023-04-16T12:31:19.348Z,81.5870
2023-04-16T12:32:21.706Z,80.7901
2023-04-16T12:33:23.948Z,80.8961
2023-04-16T12:34:48.087Z,81.1604